Szolnok, Hungary
Current Conditions -  °F | °C
As of 4:45 AM on Thursday 23 Oct 2014 (Local Time) from LHSN Reporting Station
Haze Haze  
Wind Chill: 42°   Ceiling: 500
Heat Index: 45°   Visibility: 1.8mi
Dew Point: 45°   Wind: 4mph
Humidity: 100%   Direction: 320°NW
Pressure: 29.62"   Gusts: NA
Location:  47.18°N, 20.18°E
Report Text: LHSN 230245Z 32002MPS 3000 BR OVC005 07/07 Q1003 NOSIG RMK YLO
Loading
Personal Weather Stations






























Interactive Weather Map
Tropical Storm Tracking
New forecast layout! Learn more

10-Day Weather Forecast

Advertisements
Track Severe Weather on mobile